createdAt,value
2022-10-11T00:01:36.009Z,12.14
2022-10-11T00:04:02.484Z,12.12
2022-10-11T00:06:28.972Z,12.12
2022-10-11T00:08:55.376Z,12.13
2022-10-11T00:11:21.983Z,12.12
2022-10-11T00:13:48.431Z,12.14
2022-10-11T00:16:16.559Z,12.13
2022-10-11T00:18:43.002Z,12.14
2022-10-11T00:21:13.811Z,12.14
2022-10-11T00:23:41.234Z,12.13
2022-10-11T00:26:10.076Z,12.19
2022-10-11T00:28:37.609Z,12.17
2022-10-11T00:31:08.019Z,12.13
2022-10-11T00:33:35.196Z,12.08
2022-10-11T00:36:02.301Z,12.02
2022-10-11T00:38:31.590Z,11.99
2022-10-11T00:40:59.031Z,11.97
2022-10-11T00:43:28.064Z,11.94
2022-10-11T00:45:57.594Z,11.93
2022-10-11T00:48:40.922Z,11.90
2022-10-11T00:51:15.038Z,11.88
2022-10-11T00:53:42.215Z,11.84
2022-10-11T00:56:24.908Z,11.81
2022-10-11T00:58:52.810Z,11.80
2022-10-11T01:01:19.418Z,11.82
2022-10-11T01:03:46.400Z,11.80
2022-10-11T01:06:12.891Z,11.79
2022-10-11T01:08:39.716Z,11.76
2022-10-11T01:11:06.638Z,11.76
2022-10-11T01:13:49.567Z,11.74
2022-10-11T01:16:15.947Z,11.68
2022-10-11T01:19:25.179Z,11.64
2022-10-11T01:22:14.943Z,11.60
2022-10-11T01:25:05.633Z,11.58
2022-10-11T01:27:53.381Z,11.55
2022-10-11T01:30:37.655Z,11.50
2022-10-11T01:33:37.279Z,11.47
2022-10-11T01:36:45.317Z,11.38
2022-10-11T01:39:31.263Z,11.38
2022-10-11T01:42:18.572Z,11.32
2022-10-11T01:44:47.684Z,11.36
2022-10-11T01:47:19.279Z,11.32
2022-10-11T01:49:46.216Z,11.33
2022-10-11T01:52:12.853Z,11.31
2022-10-11T01:55:08.777Z,11.31
2022-10-11T01:58:23.142Z,11.31
2022-10-11T02:01:06.019Z,11.29
2022-10-11T02:03:49.333Z,11.31
2022-10-11T02:06:51.256Z,11.32
2022-10-11T02:09:36.762Z,11.30
2022-10-11T02:12:09.155Z,11.32
2022-10-11T02:14:43.669Z,11.32
2022-10-11T02:17:18.324Z,11.31
2022-10-11T02:19:49.917Z,11.30
2022-10-11T02:22:24.709Z,11.32
2022-10-11T02:24:55.136Z,11.34
2022-10-11T02:27:24.955Z,11.32
2022-10-11T02:29:54.221Z,11.33
2022-10-11T02:32:23.960Z,11.32
2022-10-11T02:34:59.073Z,11.33
2022-10-11T02:37:43.708Z,11.36
2022-10-11T02:40:32.457Z,11.36
2022-10-11T02:43:12.062Z,11.37
2022-10-11T02:45:43.359Z,11.40
2022-10-11T02:48:11.966Z,11.38
2022-10-11T02:50:43.173Z,11.37
2022-10-11T02:53:09.886Z,11.44
2022-10-11T02:55:36.592Z,11.45
2022-10-11T02:58:03.420Z,11.45
2022-10-11T03:00:30.164Z,11.41
2022-10-11T03:02:56.678Z,11.38
2022-10-11T03:05:23.223Z,11.38
2022-10-11T03:07:49.728Z,11.40
2022-10-11T03:10:16.351Z,11.40
2022-10-11T03:12:42.828Z,11.40
2022-10-11T03:15:09.737Z,11.43
2022-10-11T03:17:37.365Z,11.46
2022-10-11T03:20:05.925Z,11.45
2022-10-11T03:22:32.415Z,11.49
2022-10-11T03:25:03.532Z,11.50
2022-10-11T03:27:31.663Z,11.56
2022-10-11T03:29:58.180Z,11.57
2022-10-11T03:32:24.881Z,11.54
2022-10-11T03:34:51.449Z,11.55
2022-10-11T03:37:18.422Z,11.49
2022-10-11T03:39:45.920Z,11.49
2022-10-11T03:42:13.320Z,11.56
2022-10-11T03:44:39.796Z,11.59
2022-10-11T03:47:06.223Z,11.53
2022-10-11T03:49:32.835Z,11.50
2022-10-11T03:51:59.414Z,11.46
2022-10-11T03:54:26.228Z,11.43
2022-10-11T03:56:52.948Z,11.48
2022-10-11T03:59:19.377Z,11.48
2022-10-11T04:01:45.859Z,11.44
2022-10-11T04:04:12.382Z,11.42
2022-10-11T04:06:38.849Z,11.42
2022-10-11T04:09:05.431Z,11.42
2022-10-11T04:11:31.895Z,11.45
2022-10-11T04:13:58.648Z,11.43
2022-10-11T04:16:26.207Z,11.41
2022-10-11T04:18:52.912Z,11.44
2022-10-11T04:21:19.367Z,11.46
2022-10-11T04:23:45.881Z,11.46
2022-10-11T04:26:12.334Z,11.47
2022-10-11T04:28:39.119Z,11.47
2022-10-11T04:31:06.632Z,11.48
2022-10-11T04:33:33.533Z,11.48
2022-10-11T04:36:00.084Z,11.47
2022-10-11T04:38:26.531Z,11.50
2022-10-11T04:40:53.032Z,11.53
2022-10-11T04:43:19.758Z,11.52
2022-10-11T04:45:46.461Z,11.52
2022-10-11T04:48:14.014Z,11.50
2022-10-11T04:50:40.508Z,11.49
2022-10-11T04:53:14.715Z,11.47
2022-10-11T04:55:41.160Z,11.53
2022-10-11T04:58:07.573Z,11.54
2022-10-11T05:00:34.080Z,11.51
2022-10-11T05:03:00.569Z,11.51
2022-10-11T05:05:27.099Z,11.45
2022-10-11T05:07:53.616Z,11.47
2022-10-11T05:10:20.108Z,11.47
2022-10-11T05:12:46.615Z,11.49
2022-10-11T05:15:13.167Z,11.47
2022-10-11T05:17:39.607Z,11.45
2022-10-11T05:20:06.840Z,11.45
2022-10-11T05:22:33.240Z,11.42
2022-10-11T05:24:59.728Z,11.43
2022-10-11T05:27:26.306Z,11.48
2022-10-11T05:29:52.723Z,11.47
2022-10-11T05:32:19.177Z,11.48
2022-10-11T05:34:45.664Z,11.52
2022-10-11T05:37:12.087Z,11.48
2022-10-11T05:39:38.549Z,11.46
2022-10-11T05:42:09.622Z,11.40
2022-10-11T05:44:36.428Z,11.37
2022-10-11T05:47:03.142Z,11.40
2022-10-11T05:49:29.580Z,11.50
2022-10-11T05:51:56.684Z,11.51
2022-10-11T05:54:23.343Z,11.49
2022-10-11T05:56:49.844Z,11.49
2022-10-11T05:59:16.377Z,11.49
2022-10-11T06:01:42.907Z,11.50
2022-10-11T06:04:09.915Z,11.49
2022-10-11T06:06:36.346Z,11.47
2022-10-11T06:09:02.884Z,11.51
2022-10-11T06:11:29.440Z,11.51
2022-10-11T06:14:00.856Z,11.49
2022-10-11T06:16:27.583Z,11.53
2022-10-11T06:18:55.038Z,11.57
2022-10-11T06:21:22.126Z,11.61
2022-10-11T06:23:50.755Z,11.65
2022-10-11T06:26:18.209Z,11.67
2022-10-11T06:28:44.859Z,11.71
2022-10-11T06:31:12.553Z,11.72
2022-10-11T06:33:39.484Z,11.71
2022-10-11T06:36:09.772Z,11.82
2022-10-11T06:38:39.831Z,11.85
2022-10-11T06:41:17.863Z,11.95
2022-10-11T06:43:44.896Z,11.99
2022-10-11T06:46:12.331Z,12.01
2022-10-11T06:48:43.509Z,12.08
2022-10-11T06:51:13.759Z,12.05
2022-10-11T06:53:40.894Z,12.08
2022-10-11T06:56:09.946Z,12.17
2022-10-11T06:58:37.626Z,12.24
2022-10-11T07:01:06.440Z,12.25
2022-10-11T07:03:33.363Z,12.38
2022-10-11T07:06:05.124Z,12.46
2022-10-11T07:08:32.331Z,12.53
2022-10-11T07:11:20.211Z,12.61
2022-10-11T07:13:56.446Z,12.65
2022-10-11T07:16:23.664Z,12.67
2022-10-11T07:18:59.913Z,12.67
2022-10-11T07:21:27.767Z,12.62
2022-10-11T07:23:54.277Z,12.63
2022-10-11T07:26:20.798Z,12.63
2022-10-11T07:28:47.515Z,12.59
2022-10-11T07:31:17.870Z,12.68
2022-10-11T07:33:44.371Z,12.72
2022-10-11T07:36:11.584Z,12.72
2022-10-11T07:38:46.270Z,12.78
2022-10-11T07:41:13.429Z,12.86
2022-10-11T07:43:40.188Z,12.87
2022-10-11T07:46:07.432Z,12.89
2022-10-11T07:48:35.653Z,12.97
2022-10-11T07:51:15.072Z,12.96
2022-10-11T07:53:43.622Z,13.00
2022-10-11T07:56:12.616Z,13.02
2022-10-11T07:58:40.643Z,13.06
2022-10-11T08:01:08.435Z,13.04
2022-10-11T08:03:35.494Z,13.12
2022-10-11T08:06:05.106Z,13.21
2022-10-11T08:08:31.729Z,13.34
2022-10-11T08:10:59.421Z,13.41
2022-10-11T08:13:26.676Z,13.50
2022-10-11T08:15:53.874Z,13.58
2022-10-11T08:18:20.310Z,13.74
2022-10-11T08:20:47.028Z,13.73
2022-10-11T08:23:13.831Z,13.78
2022-10-11T08:25:42.535Z,13.86
2022-10-11T08:28:10.086Z,13.99
2022-10-11T08:30:36.651Z,14.31
2022-10-11T08:33:07.612Z,14.67
2022-10-11T08:35:36.165Z,15.24
2022-10-11T08:38:02.816Z,15.83
2022-10-11T08:40:34.264Z,16.40
2022-10-11T08:43:08.285Z,16.90
2022-10-11T08:45:57.212Z,17.26
2022-10-11T08:48:41.659Z,17.52
2022-10-11T08:51:28.238Z,17.25
2022-10-11T08:54:12.421Z,16.98
2022-10-11T08:56:40.787Z,17.05
2022-10-11T08:59:13.420Z,16.91
2022-10-11T09:02:21.527Z,16.74
2022-10-11T09:04:51.566Z,16.79
2022-10-11T09:07:34.490Z,16.82
2022-10-11T09:10:41.259Z,16.54
2022-10-11T09:13:16.884Z,16.43
2022-10-11T09:16:07.219Z,16.54
2022-10-11T09:18:41.089Z,16.38
2022-10-11T09:21:52.454Z,16.03
2022-10-11T09:24:37.077Z,15.87
2022-10-11T09:28:01.330Z,15.90
2022-10-11T09:30:23.167Z,15.96
2022-10-11T09:33:09.511Z,15.95
2022-10-11T09:35:44.231Z,16.02
2022-10-11T09:38:37.739Z,15.99
2022-10-11T09:41:21.803Z,16.15
2022-10-11T09:43:50.968Z,15.88
2022-10-11T09:46:40.340Z,15.92
2022-10-11T09:49:15.923Z,16.04
2022-10-11T09:51:47.427Z,16.17
2022-10-11T09:54:13.921Z,16.19
2022-10-11T09:56:43.542Z,15.97
2022-10-11T09:59:10.004Z,16.04
2022-10-11T10:01:36.700Z,16.01
2022-10-11T10:04:10.881Z,16.19
2022-10-11T10:06:38.613Z,16.38
2022-10-11T10:09:28.733Z,16.45
2022-10-11T10:11:55.964Z,16.50
2022-10-11T10:14:28.647Z,16.47
2022-10-11T10:17:13.561Z,16.35
2022-10-11T10:19:47.211Z,16.36
2022-10-11T10:22:20.459Z,16.56
2022-10-11T10:24:50.097Z,16.71
2022-10-11T10:27:28.088Z,16.75
2022-10-11T10:30:09.863Z,16.77
2022-10-11T10:32:48.540Z,16.89
2022-10-11T10:35:38.909Z,16.94
2022-10-11T10:38:17.110Z,16.99
2022-10-11T10:40:56.573Z,17.08
2022-10-11T10:43:26.334Z,17.08
2022-10-11T10:46:34.120Z,16.92
2022-10-11T10:52:03.200Z,16.87
2022-10-11T10:54:40.618Z,16.76
2022-10-11T10:57:33.487Z,16.67
2022-10-11T11:00:05.992Z,16.54
2022-10-11T11:02:44.685Z,16.60
2022-10-11T11:05:28.565Z,16.65
2022-10-11T11:08:05.667Z,16.75
2022-10-11T11:10:53.987Z,16.80
2022-10-11T11:13:20.389Z,16.74
2022-10-11T11:16:00.053Z,16.88
2022-10-11T11:18:41.094Z,16.95
2022-10-11T11:21:10.485Z,17.05
2022-10-11T11:24:00.381Z,17.08
2022-10-11T11:26:54.600Z,17.05
2022-10-11T11:29:44.391Z,16.97
2022-10-11T11:32:23.363Z,16.99
2022-10-11T11:34:58.352Z,16.93
2022-10-11T11:37:44.089Z,16.94
2022-10-11T11:40:21.783Z,17.12
2022-10-11T11:42:51.544Z,17.18
2022-10-11T11:45:27.105Z,17.26
2022-10-11T11:48:05.576Z,17.23
2022-10-11T11:50:40.103Z,17.18
2022-10-11T11:53:16.722Z,16.99
2022-10-11T11:56:19.545Z,16.66
2022-10-11T11:58:59.559Z,16.37
2022-10-11T12:01:32.035Z,16.25
2022-10-11T12:04:04.549Z,16.21
2022-10-11T12:06:34.040Z,16.10
2022-10-11T12:09:22.317Z,16.00
2022-10-11T12:11:56.216Z,16.14
2022-10-11T12:14:32.952Z,16.18
2022-10-11T12:17:11.048Z,16.16
2022-10-11T12:19:40.035Z,16.21
2022-10-11T12:22:28.038Z,16.02
2022-10-11T12:25:01.206Z,16.04
2022-10-11T12:27:45.168Z,16.07
2022-10-11T12:30:42.821Z,16.32
2022-10-11T12:33:21.329Z,16.50
2022-10-11T12:36:01.513Z,16.28
2022-10-11T12:38:37.294Z,16.37
2022-10-11T12:41:09.816Z,16.51
2022-10-11T12:44:01.717Z,16.42
2022-10-11T12:46:28.159Z,16.49
2022-10-11T12:49:16.918Z,16.52
2022-10-11T12:51:46.345Z,16.61
2022-10-11T12:54:45.334Z,16.74
2022-10-11T12:57:47.158Z,16.74
2022-10-11T13:00:32.075Z,16.84
2022-10-11T13:03:04.785Z,16.89
2022-10-11T13:05:46.952Z,16.88
2022-10-11T13:08:22.827Z,16.99
2022-10-11T13:10:49.551Z,16.96
2022-10-11T13:13:49.406Z,16.95
2022-10-11T13:16:19.064Z,17.07
2022-10-11T13:18:48.298Z,17.05
2022-10-11T13:21:21.463Z,17.10
2022-10-11T13:23:55.385Z,17.16
2022-10-11T13:26:21.801Z,17.21
2022-10-11T13:28:48.339Z,17.14
2022-10-11T13:31:14.909Z,17.03
2022-10-11T13:33:43.286Z,17.05
2022-10-11T13:36:17.578Z,17.10
2022-10-11T13:38:53.614Z,17.12
2022-10-11T13:41:21.688Z,17.24
2022-10-11T13:43:48.437Z,17.22
2022-10-11T13:46:22.382Z,17.16
2022-10-11T13:49:26.544Z,17.07
2022-10-11T13:52:01.861Z,17.02
2022-10-11T13:54:53.212Z,16.83
2022-10-11T13:57:22.078Z,16.86
2022-10-11T13:59:48.847Z,16.77
2022-10-11T14:02:23.770Z,16.76
2022-10-11T14:04:50.453Z,16.45
2022-10-11T14:07:31.743Z,16.39
2022-10-11T14:09:58.358Z,16.53
2022-10-11T14:12:35.680Z,16.51
2022-10-11T14:15:05.173Z,16.53
2022-10-11T14:17:43.721Z,16.37
2022-10-11T14:20:33.441Z,16.38
2022-10-11T14:23:00.084Z,16.45
2022-10-11T14:25:26.719Z,16.43
2022-10-11T14:27:54.634Z,16.43
2022-10-11T14:30:26.579Z,16.36
2022-10-11T14:32:56.577Z,16.26
2022-10-11T14:35:28.918Z,16.37
2022-10-11T14:37:55.464Z,16.34
2022-10-11T14:40:24.587Z,16.22
2022-10-11T14:42:51.348Z,16.17
2022-10-11T14:45:18.806Z,16.21
2022-10-11T14:47:45.367Z,16.18
2022-10-11T14:50:28.582Z,16.16
2022-10-11T14:52:55.944Z,16.11
2022-10-11T14:55:22.772Z,16.09
2022-10-11T14:57:49.206Z,16.05
2022-10-11T15:00:22.668Z,16.01
2022-10-11T15:02:50.817Z,15.99
2022-10-11T15:05:17.253Z,15.99
2022-10-11T15:07:43.948Z,15.96
2022-10-11T15:10:45.401Z,15.85
2022-10-11T15:13:11.826Z,15.76
2022-10-11T15:15:41.210Z,15.67
2022-10-11T15:18:21.116Z,15.65
2022-10-11T15:20:47.826Z,15.74
2022-10-11T15:23:14.352Z,15.61
2022-10-11T15:25:41.475Z,15.57
2022-10-11T15:28:13.852Z,15.50
2022-10-11T15:30:41.848Z,15.47
2022-10-11T15:33:08.381Z,15.38
2022-10-11T15:35:34.864Z,15.30
2022-10-11T15:38:01.353Z,15.26
2022-10-11T15:40:33.639Z,15.25
2022-10-11T15:43:00.310Z,15.14
2022-10-11T15:45:27.059Z,15.12
2022-10-11T15:47:53.683Z,15.10
2022-10-11T15:50:36.710Z,15.10
2022-10-11T15:53:15.513Z,14.98
2022-10-11T15:55:45.042Z,14.91
2022-10-11T15:58:33.330Z,14.85
2022-10-11T16:01:05.373Z,14.80
2022-10-11T16:03:33.407Z,14.80
2022-10-11T16:06:04.948Z,14.67
2022-10-11T16:08:32.873Z,14.64
2022-10-11T16:11:02.705Z,14.58
2022-10-11T16:13:29.160Z,14.51
2022-10-11T16:15:55.795Z,14.55
2022-10-11T16:18:22.444Z,14.51
2022-10-11T16:20:54.253Z,14.44
2022-10-11T16:23:21.991Z,14.34
2022-10-11T16:26:06.817Z,14.28
2022-10-11T16:28:36.805Z,14.26
2022-10-11T16:31:13.127Z,14.21
2022-10-11T16:33:45.692Z,14.15
2022-10-11T16:36:35.726Z,14.04
2022-10-11T16:39:28.980Z,13.95
2022-10-11T16:41:55.447Z,13.90
2022-10-11T16:44:25.267Z,13.83
2022-10-11T16:46:52.017Z,13.88
2022-10-11T16:49:22.538Z,13.78
2022-10-11T16:51:50.861Z,13.75
2022-10-11T16:54:20.465Z,13.70
2022-10-11T16:56:50.676Z,13.65
2022-10-11T16:59:17.438Z,13.64
2022-10-11T17:01:45.130Z,13.61
2022-10-11T17:04:12.095Z,13.55
2022-10-11T17:06:40.221Z,13.49
2022-10-11T17:09:07.420Z,13.42
2022-10-11T17:11:33.951Z,13.40
2022-10-11T17:14:01.735Z,13.39
2022-10-11T17:16:28.652Z,13.31
2022-10-11T17:18:55.111Z,13.31
2022-10-11T17:21:21.978Z,13.29
2022-10-11T17:23:49.344Z,13.28
2022-10-11T17:26:27.542Z,13.27
2022-10-11T17:28:58.536Z,13.17
2022-10-11T17:31:25.327Z,13.06
2022-10-11T17:33:53.205Z,13.02
2022-10-11T17:36:30.477Z,12.98
2022-10-11T17:38:58.033Z,12.89
2022-10-11T17:41:29.456Z,12.84
2022-10-11T17:43:58.262Z,12.84
2022-10-11T17:46:25.790Z,12.77
2022-10-11T17:48:54.955Z,12.73
2022-10-11T17:51:21.412Z,12.70
2022-10-11T17:53:48.576Z,12.69
2022-10-11T17:56:18.729Z,12.64
2022-10-11T17:58:45.785Z,12.60
2022-10-11T18:01:14.860Z,12.55
2022-10-11T18:03:42.527Z,12.52
2022-10-11T18:06:13.225Z,12.50
2022-10-11T18:08:41.056Z,12.49
2022-10-11T18:11:13.761Z,12.42
2022-10-11T18:13:45.597Z,12.40
2022-10-11T18:16:14.740Z,12.42
2022-10-11T18:18:42.260Z,12.44
2022-10-11T18:21:08.941Z,12.41
2022-10-11T18:23:37.400Z,12.46
2022-10-11T18:26:11.836Z,12.48
2022-10-11T18:28:38.900Z,12.43
2022-10-11T18:31:13.477Z,12.42
2022-10-11T18:33:40.964Z,12.46
2022-10-11T18:36:08.409Z,12.53
2022-10-11T18:38:35.877Z,12.52
2022-10-11T18:41:07.639Z,12.53
2022-10-11T18:43:34.872Z,12.48
2022-10-11T18:46:12.420Z,12.50
2022-10-11T18:48:43.968Z,12.50
2022-10-11T18:51:14.355Z,12.57
2022-10-11T18:53:41.825Z,12.61
2022-10-11T18:56:10.406Z,12.57
2022-10-11T18:58:38.834Z,12.56
2022-10-11T19:01:13.256Z,12.53
2022-10-11T19:03:39.687Z,12.56
2022-10-11T19:06:09.313Z,12.57
2022-10-11T19:08:35.896Z,12.57
2022-10-11T19:11:10.385Z,12.56
2022-10-11T19:13:36.964Z,12.57
2022-10-11T19:16:14.590Z,12.52
2022-10-11T19:18:44.301Z,12.48
2022-10-11T19:21:12.979Z,12.48
2022-10-11T19:23:40.780Z,12.50
2022-10-11T19:26:09.080Z,12.49
2022-10-11T19:28:35.845Z,12.42
2022-10-11T19:31:05.067Z,12.36
2022-10-11T19:33:32.995Z,12.28
2022-10-11T19:36:05.603Z,12.30
2022-10-11T19:38:34.452Z,12.27
2022-10-11T19:41:01.756Z,12.18
2022-10-11T19:43:28.207Z,12.17
2022-10-11T19:46:20.221Z,12.15
2022-10-11T19:48:54.286Z,12.15
2022-10-11T19:51:25.798Z,12.17
2022-10-11T19:54:00.187Z,12.20
2022-10-11T19:56:28.974Z,12.19
2022-10-11T19:58:55.487Z,12.15
2022-10-11T20:01:24.623Z,12.11
2022-10-11T20:03:54.068Z,12.07
2022-10-11T20:06:21.997Z,12.05
2022-10-11T20:09:10.301Z,12.10
2022-10-11T20:11:38.819Z,12.06
2022-10-11T20:14:05.223Z,12.02
2022-10-11T20:16:31.714Z,11.99
2022-10-11T20:18:59.217Z,11.93
2022-10-11T20:21:27.743Z,11.86
2022-10-11T20:23:58.931Z,11.83
2022-10-11T20:26:26.876Z,11.78
2022-10-11T20:28:56.072Z,11.72
2022-10-11T20:31:25.999Z,11.70
2022-10-11T20:33:56.407Z,11.67
2022-10-11T20:36:25.204Z,11.66
2022-10-11T20:38:54.261Z,11.65
2022-10-11T20:41:23.907Z,11.65
2022-10-11T20:43:56.697Z,11.64
2022-10-11T20:49:18.969Z,11.58
2022-10-11T20:51:47.965Z,11.60
2022-10-11T20:56:55.482Z,11.54
2022-10-11T20:59:25.592Z,11.50
2022-10-11T21:01:54.120Z,11.49
2022-10-11T21:04:20.805Z,11.45
2022-10-11T21:06:48.535Z,11.37
2022-10-11T21:09:32.772Z,11.34
2022-10-11T21:12:02.797Z,11.35
2022-10-11T21:14:29.296Z,11.24
2022-10-11T21:16:55.964Z,11.21
2022-10-11T21:19:22.607Z,11.17
2022-10-11T21:21:53.523Z,11.19
2022-10-11T21:24:20.579Z,11.10
2022-10-11T21:26:47.802Z,11.00
2022-10-11T21:29:14.347Z,10.98
2022-10-11T21:31:40.867Z,10.95
2022-10-11T21:34:07.493Z,10.93
2022-10-11T21:36:34.101Z,10.93
2022-10-11T21:39:00.528Z,10.90
2022-10-11T21:41:30.001Z,10.88
2022-10-11T21:43:57.191Z,10.85
2022-10-11T21:46:41.747Z,10.82
2022-10-11T21:49:12.880Z,10.80
2022-10-11T21:51:39.371Z,10.81
2022-10-11T21:54:05.907Z,10.81
2022-10-11T21:56:32.561Z,10.81
2022-10-11T21:58:59.224Z,10.80
2022-10-11T22:01:25.779Z,10.80
2022-10-11T22:03:55.270Z,10.80
2022-10-11T22:06:22.109Z,10.78
2022-10-11T22:08:50.041Z,10.77
2022-10-11T22:11:16.864Z,10.74
2022-10-11T22:13:43.341Z,10.67
2022-10-11T22:16:12.793Z,10.57
2022-10-11T22:18:39.789Z,10.50
2022-10-11T22:21:09.737Z,10.45
2022-10-11T22:23:36.538Z,10.40
2022-10-11T22:26:13.159Z,10.33
2022-10-11T22:28:40.510Z,10.28
2022-10-11T22:31:09.267Z,10.33
2022-10-11T22:33:36.519Z,10.32
2022-10-11T22:36:06.345Z,10.28
2022-10-11T22:38:35.058Z,10.28
2022-10-11T22:41:01.518Z,10.28
2022-10-11T22:43:27.972Z,10.31
2022-10-11T22:45:54.452Z,10.31
2022-10-11T22:48:21.105Z,10.31
2022-10-11T22:50:47.598Z,10.33
2022-10-11T22:53:14.751Z,10.32
2022-10-11T22:55:41.868Z,10.23
2022-10-11T22:58:09.020Z,10.23
2022-10-11T23:00:35.928Z,10.24
2022-10-11T23:03:02.371Z,10.24
2022-10-11T23:05:28.854Z,10.18
2022-10-11T23:07:55.387Z,10.14
2022-10-11T23:10:21.926Z,10.12
2022-10-11T23:12:48.462Z,10.19
2022-10-11T23:15:15.429Z,10.13
2022-10-11T23:17:42.363Z,10.11
2022-10-11T23:20:09.529Z,10.12
2022-10-11T23:22:36.163Z,10.10
2022-10-11T23:25:02.881Z,10.11
2022-10-11T23:27:30.347Z,10.11
2022-10-11T23:29:56.868Z,10.08
2022-10-11T23:32:23.421Z,10.07
2022-10-11T23:34:49.901Z,10.07
2022-10-11T23:37:16.385Z,10.08
2022-10-11T23:39:42.912Z,10.07
2022-10-11T23:42:09.355Z,10.08
2022-10-11T23:44:35.801Z,10.10
2022-10-11T23:47:02.313Z,10.11
2022-10-11T23:49:28.750Z,10.07
2022-10-11T23:51:55.157Z,10.06
2022-10-11T23:54:21.599Z,10.05
2022-10-11T23:56:48.026Z,10.04
2022-10-11T23:59:14.531Z,10.05
